sensor_id;sensor_type;location;lat;lon;timestamp;P1;durP1;ratioP1;P2;durP2;ratioP2
19566;SDS011;9930;49.240;8.548;2023-04-24T00:00:19;1.27;;;1.02;;
19566;SDS011;9930;49.240;8.548;2023-04-24T00:02:50;1.45;;;0.93;;
19566;SDS011;9930;49.240;8.548;2023-04-24T00:05:16;1.25;;;1.05;;
19566;SDS011;9930;49.240;8.548;2023-04-24T00:07:44;1.45;;;0.90;;
19566;SDS011;9930;49.240;8.548;2023-04-24T00:10:11;1.20;;;0.90;;
19566;SDS011;9930;49.240;8.548;2023-04-24T00:12:37;1.52;;;0.88;;
19566;SDS011;9930;49.240;8.548;2023-04-24T00:15:03;1.45;;;0.90;;
19566;SDS011;9930;49.240;8.548;2023-04-24T00:17:30;1.33;;;0.90;;
19566;SDS011;9930;49.240;8.548;2023-04-24T00:19:56;0.70;;;0.70;;
19566;SDS011;9930;49.240;8.548;2023-04-24T00:22:25;1.00;;;0.90;;
19566;SDS011;9930;49.240;8.548;2023-04-24T00:24:53;1.30;;;0.93;;
19566;SDS011;9930;49.240;8.548;2023-04-24T00:27:21;0.80;;;0.80;;
19566;SDS011;9930;49.240;8.548;2023-04-24T00:29:48;1.95;;;0.88;;
19566;SDS011;9930;49.240;8.548;2023-04-24T00:32:18;1.08;;;0.90;;
19566;SDS011;9930;49.240;8.548;2023-04-24T00:34:44;1.90;;;0.90;;
19566;SDS011;9930;49.240;8.548;2023-04-24T00:37:15;1.05;;;0.95;;
19566;SDS011;9930;49.240;8.548;2023-04-24T00:39:47;1.10;;;1.00;;
19566;SDS011;9930;49.240;8.548;2023-04-24T00:42:13;1.90;;;1.10;;
19566;SDS011;9930;49.240;8.548;2023-04-24T00:44:42;1.23;;;0.90;;
19566;SDS011;9930;49.240;8.548;2023-04-24T00:47:10;1.20;;;0.80;;
19566;SDS011;9930;49.240;8.548;2023-04-24T00:49:39;1.02;;;0.80;;
19566;SDS011;9930;49.240;8.548;2023-04-24T00:52:05;0.90;;;0.90;;
19566;SDS011;9930;49.240;8.548;2023-04-24T00:54:34;1.13;;;1.02;;
19566;SDS011;9930;49.240;8.548;2023-04-24T00:57:01;0.90;;;0.90;;
19566;SDS011;9930;49.240;8.548;2023-04-24T00:59:29;0.93;;;0.90;;
19566;SDS011;9930;49.240;8.548;2023-04-24T01:01:56;1.20;;;1.10;;
19566;SDS011;9930;49.240;8.548;2023-04-24T01:04:23;1.05;;;1.05;;
19566;SDS011;9930;49.240;8.548;2023-04-24T01:06:55;0.88;;;0.88;;
19566;SDS011;9930;49.240;8.548;2023-04-24T01:09:24;1.15;;;1.00;;
19566;SDS011;9930;49.240;8.548;2023-04-24T01:11:53;1.00;;;0.90;;
19566;SDS011;9930;49.240;8.548;2023-04-24T01:14:21;2.17;;;1.48;;
19566;SDS011;9930;49.240;8.548;2023-04-24T01:16:47;8.18;;;4.80;;
19566;SDS011;9930;49.240;8.548;2023-04-24T01:19:13;6.50;;;3.60;;
19566;SDS011;9930;49.240;8.548;2023-04-24T01:21:45;3.30;;;2.20;;
19566;SDS011;9930;49.240;8.548;2023-04-24T01:24:16;2.88;;;1.83;;
19566;SDS011;9930;49.240;8.548;2023-04-24T01:26:44;2.40;;;1.45;;
19566;SDS011;9930;49.240;8.548;2023-04-24T01:29:12;0.88;;;0.88;;
19566;SDS011;9930;49.240;8.548;2023-04-24T01:31:41;1.05;;;0.85;;
19566;SDS011;9930;49.240;8.548;2023-04-24T01:34:07;1.70;;;0.95;;
19566;SDS011;9930;49.240;8.548;2023-04-24T01:36:33;1.10;;;1.00;;
19566;SDS011;9930;49.240;8.548;2023-04-24T01:39:02;0.73;;;0.73;;
19566;SDS011;9930;49.240;8.548;2023-04-24T01:41:29;0.90;;;0.90;;
19566;SDS011;9930;49.240;8.548;2023-04-24T01:43:57;0.88;;;0.80;;
19566;SDS011;9930;49.240;8.548;2023-04-24T01:46:26;1.10;;;1.00;;
19566;SDS011;9930;49.240;8.548;2023-04-24T01:48:51;0.70;;;0.70;;
19566;SDS011;9930;49.240;8.548;2023-04-24T01:51:17;0.82;;;0.82;;
19566;SDS011;9930;49.240;8.548;2023-04-24T01:53:43;0.77;;;0.77;;
19566;SDS011;9930;49.240;8.548;2023-04-24T01:56:12;1.15;;;0.80;;
19566;SDS011;9930;49.240;8.548;2023-04-24T01:58:40;0.80;;;0.80;;
19566;SDS011;9930;49.240;8.548;2023-04-24T02:01:06;1.52;;;0.90;;
19566;SDS011;9930;49.240;8.548;2023-04-24T02:03:32;0.82;;;0.82;;
19566;SDS011;9930;49.240;8.548;2023-04-24T02:06:00;0.80;;;0.80;;
19566;SDS011;9930;49.240;8.548;2023-04-24T02:08:28;1.85;;;0.93;;
19566;SDS011;9930;49.240;8.548;2023-04-24T02:10:56;1.92;;;0.95;;
19566;SDS011;9930;49.240;8.548;2023-04-24T02:13:26;0.80;;;0.80;;
19566;SDS011;9930;49.240;8.548;2023-04-24T02:15:52;1.10;;;0.90;;
19566;SDS011;9930;49.240;8.548;2023-04-24T02:18:17;1.20;;;1.10;;
19566;SDS011;9930;49.240;8.548;2023-04-24T02:20:43;1.42;;;1.33;;
19566;SDS011;9930;49.240;8.548;2023-04-24T02:23:10;1.25;;;1.02;;
19566;SDS011;9930;49.240;8.548;2023-04-24T02:25:50;0.98;;;0.88;;
19566;SDS011;9930;49.240;8.548;2023-04-24T02:28:18;1.02;;;0.88;;
19566;SDS011;9930;49.240;8.548;2023-04-24T02:30:45;0.82;;;0.82;;
19566;SDS011;9930;49.240;8.548;2023-04-24T02:33:17;0.98;;;0.90;;
19566;SDS011;9930;49.240;8.548;2023-04-24T02:35:48;0.95;;;0.90;;
19566;SDS011;9930;49.240;8.548;2023-04-24T02:38:16;1.00;;;0.90;;
19566;SDS011;9930;49.240;8.548;2023-04-24T02:40:44;1.35;;;0.80;;
19566;SDS011;9930;49.240;8.548;2023-04-24T02:43:15;1.25;;;0.93;;
19566;SDS011;9930;49.240;8.548;2023-04-24T02:45:40;4.22;;;1.05;;
19566;SDS011;9930;49.240;8.548;2023-04-24T02:48:08;1.40;;;0.95;;
19566;SDS011;9930;49.240;8.548;2023-04-24T02:50:36;1.25;;;0.88;;
19566;SDS011;9930;49.240;8.548;2023-04-24T02:53:02;1.27;;;0.90;;
19566;SDS011;9930;49.240;8.548;2023-04-24T02:55:30;1.55;;;0.90;;
19566;SDS011;9930;49.240;8.548;2023-04-24T02:57:56;1.20;;;0.93;;
19566;SDS011;9930;49.240;8.548;2023-04-24T03:00:22;4.93;;;4.28;;
19566;SDS011;9930;49.240;8.548;2023-04-24T03:02:48;5.35;;;4.85;;
19566;SDS011;9930;49.240;8.548;2023-04-24T03:05:16;5.85;;;5.28;;
19566;SDS011;9930;49.240;8.548;2023-04-24T03:07:42;13.43;;;12.00;;
19566;SDS011;9930;49.240;8.548;2023-04-24T03:10:11;13.52;;;11.65;;
19566;SDS011;9930;49.240;8.548;2023-04-24T03:12:40;12.82;;;11.13;;
19566;SDS011;9930;49.240;8.548;2023-04-24T03:15:05;4.68;;;3.97;;
19566;SDS011;9930;49.240;8.548;2023-04-24T03:17:34;3.65;;;2.78;;
19566;SDS011;9930;49.240;8.548;2023-04-24T03:20:01;2.35;;;2.15;;
19566;SDS011;9930;49.240;8.548;2023-04-24T03:22:30;2.30;;;1.90;;
19566;SDS011;9930;49.240;8.548;2023-04-24T03:24:57;1.67;;;1.58;;
19566;SDS011;9930;49.240;8.548;2023-04-24T03:27:23;1.63;;;1.45;;
19566;SDS011;9930;49.240;8.548;2023-04-24T03:29:49;1.50;;;1.40;;
19566;SDS011;9930;49.240;8.548;2023-04-24T03:32:19;1.50;;;1.40;;
19566;SDS011;9930;49.240;8.548;2023-04-24T03:34:45;2.25;;;1.40;;
19566;SDS011;9930;49.240;8.548;2023-04-24T03:37:12;1.88;;;1.30;;
19566;SDS011;9930;49.240;8.548;2023-04-24T03:39:40;1.40;;;1.30;;
19566;SDS011;9930;49.240;8.548;2023-04-24T03:42:09;2.38;;;1.40;;
19566;SDS011;9930;49.240;8.548;2023-04-24T03:44:35;1.40;;;1.30;;
19566;SDS011;9930;49.240;8.548;2023-04-24T03:47:03;1.60;;;1.50;;
19566;SDS011;9930;49.240;8.548;2023-04-24T03:49:31;1.63;;;1.52;;
19566;SDS011;9930;49.240;8.548;2023-04-24T03:51:59;1.95;;;1.50;;
19566;SDS011;9930;49.240;8.548;2023-04-24T03:54:25;1.83;;;1.55;;
19566;SDS011;9930;49.240;8.548;2023-04-24T03:56:51;1.92;;;1.52;;
19566;SDS011;9930;49.240;8.548;2023-04-24T03:59:19;1.73;;;1.60;;
19566;SDS011;9930;49.240;8.548;2023-04-24T04:01:46;2.05;;;1.88;;
19566;SDS011;9930;49.240;8.548;2023-04-24T04:04:12;2.15;;;1.95;;
19566;SDS011;9930;49.240;8.548;2023-04-24T04:06:42;2.10;;;1.90;;
19566;SDS011;9930;49.240;8.548;2023-04-24T04:09:12;2.20;;;2.00;;
19566;SDS011;9930;49.240;8.548;2023-04-24T04:11:40;2.20;;;2.00;;
19566;SDS011;9930;49.240;8.548;2023-04-24T04:14:06;2.60;;;2.40;;
19566;SDS011;9930;49.240;8.548;2023-04-24T04:16:31;2.03;;;1.92;;
19566;SDS011;9930;49.240;8.548;2023-04-24T04:18:57;2.67;;;2.03;;
19566;SDS011;9930;49.240;8.548;2023-04-24T04:21:23;2.78;;;2.05;;
19566;SDS011;9930;49.240;8.548;2023-04-24T04:23:49;1.70;;;1.60;;
19566;SDS011;9930;49.240;8.548;2023-04-24T04:26:15;1.80;;;1.70;;
19566;SDS011;9930;49.240;8.548;2023-04-24T04:28:50;1.60;;;1.50;;
19566;SDS011;9930;49.240;8.548;2023-04-24T04:31:20;1.98;;;1.52;;
19566;SDS011;9930;49.240;8.548;2023-04-24T04:33:50;1.55;;;1.45;;
19566;SDS011;9930;49.240;8.548;2023-04-24T04:36:16;1.40;;;1.30;;
19566;SDS011;9930;49.240;8.548;2023-04-24T04:38:42;2.53;;;1.50;;
19566;SDS011;9930;49.240;8.548;2023-04-24T04:41:13;1.63;;;1.48;;
19566;SDS011;9930;49.240;8.548;2023-04-24T04:43:43;1.60;;;1.30;;
19566;SDS011;9930;49.240;8.548;2023-04-24T04:46:11;1.50;;;1.40;;
19566;SDS011;9930;49.240;8.548;2023-04-24T04:48:39;1.55;;;1.45;;
19566;SDS011;9930;49.240;8.548;2023-04-24T04:51:05;1.60;;;1.50;;
19566;SDS011;9930;49.240;8.548;2023-04-24T04:53:33;1.58;;;1.42;;
19566;SDS011;9930;49.240;8.548;2023-04-24T04:55:58;2.00;;;1.50;;
19566;SDS011;9930;49.240;8.548;2023-04-24T04:58:24;1.75;;;1.65;;
19566;SDS011;9930;49.240;8.548;2023-04-24T05:00:50;1.90;;;1.80;;
19566;SDS011;9930;49.240;8.548;2023-04-24T05:03:17;2.03;;;1.80;;
19566;SDS011;9930;49.240;8.548;2023-04-24T05:05:45;1.80;;;1.70;;
19566;SDS011;9930;49.240;8.548;2023-04-24T05:08:18;2.42;;;1.70;;
19566;SDS011;9930;49.240;8.548;2023-04-24T05:10:46;2.30;;;2.10;;
19566;SDS011;9930;49.240;8.548;2023-04-24T05:13:11;1.90;;;1.70;;
19566;SDS011;9930;49.240;8.548;2023-04-24T05:15:37;2.20;;;2.00;;
19566;SDS011;9930;49.240;8.548;2023-04-24T05:18:05;2.03;;;1.83;;
19566;SDS011;9930;49.240;8.548;2023-04-24T05:20:33;2.53;;;2.13;;
19566;SDS011;9930;49.240;8.548;2023-04-24T05:22:59;2.78;;;2.08;;
19566;SDS011;9930;49.240;8.548;2023-04-24T05:25:24;2.88;;;2.10;;
19566;SDS011;9930;49.240;8.548;2023-04-24T05:27:52;2.10;;;2.00;;
19566;SDS011;9930;49.240;8.548;2023-04-24T05:30:20;2.38;;;2.17;;
19566;SDS011;9930;49.240;8.548;2023-04-24T05:32:51;3.90;;;3.50;;
19566;SDS011;9930;49.240;8.548;2023-04-24T05:35:19;3.38;;;3.08;;
19566;SDS011;9930;49.240;8.548;2023-04-24T05:37:47;3.75;;;3.40;;
19566;SDS011;9930;49.240;8.548;2023-04-24T05:40:13;4.03;;;3.63;;
19566;SDS011;9930;49.240;8.548;2023-04-24T05:42:43;4.13;;;3.72;;
19566;SDS011;9930;49.240;8.548;2023-04-24T05:45:09;4.00;;;3.50;;
19566;SDS011;9930;49.240;8.548;2023-04-24T05:47:41;3.97;;;3.67;;
19566;SDS011;9930;49.240;8.548;2023-04-24T05:50:16;3.00;;;2.75;;
19566;SDS011;9930;49.240;8.548;2023-04-24T05:52:47;2.72;;;2.53;;
19566;SDS011;9930;49.240;8.548;2023-04-24T05:55:16;4.55;;;3.20;;
19566;SDS011;9930;49.240;8.548;2023-04-24T05:57:46;2.92;;;2.72;;
19566;SDS011;9930;49.240;8.548;2023-04-24T06:00:19;2.80;;;2.50;;
19566;SDS011;9930;49.240;8.548;2023-04-24T06:02:45;3.80;;;3.35;;
19566;SDS011;9930;49.240;8.548;2023-04-24T06:05:13;3.38;;;3.08;;
19566;SDS011;9930;49.240;8.548;2023-04-24T06:07:40;3.15;;;2.70;;
19566;SDS011;9930;49.240;8.548;2023-04-24T06:10:06;3.67;;;2.80;;
19566;SDS011;9930;49.240;8.548;2023-04-24T06:12:33;2.70;;;2.50;;
19566;SDS011;9930;49.240;8.548;2023-04-24T06:15:06;2.25;;;2.00;;
19566;SDS011;9930;49.240;8.548;2023-04-24T06:17:35;2.03;;;1.80;;
19566;SDS011;9930;49.240;8.548;2023-04-24T06:20:03;2.00;;;1.90;;
19566;SDS011;9930;49.240;8.548;2023-04-24T06:22:36;2.50;;;2.30;;
19566;SDS011;9930;49.240;8.548;2023-04-24T06:25:01;2.75;;;2.55;;
19566;SDS011;9930;49.240;8.548;2023-04-24T06:27:30;5.63;;;4.15;;
19566;SDS011;9930;49.240;8.548;2023-04-24T06:29:55;4.13;;;3.70;;
19566;SDS011;9930;49.240;8.548;2023-04-24T06:32:22;3.33;;;2.63;;
19566;SDS011;9930;49.240;8.548;2023-04-24T06:34:52;5.18;;;4.15;;
19566;SDS011;9930;49.240;8.548;2023-04-24T06:37:18;3.97;;;3.55;;
19566;SDS011;9930;49.240;8.548;2023-04-24T06:39:52;2.67;;;2.45;;
19566;SDS011;9930;49.240;8.548;2023-04-24T06:42:18;2.05;;;1.90;;
19566;SDS011;9930;49.240;8.548;2023-04-24T06:44:46;2.00;;;1.80;;
19566;SDS011;9930;49.240;8.548;2023-04-24T06:47:14;1.77;;;1.65;;
19566;SDS011;9930;49.240;8.548;2023-04-24T06:49:41;1.92;;;1.65;;
19566;SDS011;9930;49.240;8.548;2023-04-24T06:52:07;2.20;;;2.00;;
19566;SDS011;9930;49.240;8.548;2023-04-24T06:54:34;2.28;;;1.75;;
19566;SDS011;9930;49.240;8.548;2023-04-24T06:57:00;2.75;;;2.10;;
19566;SDS011;9930;49.240;8.548;2023-04-24T06:59:26;2.00;;;1.80;;
19566;SDS011;9930;49.240;8.548;2023-04-24T07:01:52;2.15;;;1.95;;
19566;SDS011;9930;49.240;8.548;2023-04-24T07:04:21;2.42;;;2.03;;
19566;SDS011;9930;49.240;8.548;2023-04-24T07:06:50;2.00;;;1.80;;
19566;SDS011;9930;49.240;8.548;2023-04-24T07:09:20;2.35;;;1.60;;
19566;SDS011;9930;49.240;8.548;2023-04-24T07:11:47;1.50;;;1.40;;
19566;SDS011;9930;49.240;8.548;2023-04-24T07:14:13;3.40;;;1.65;;
19566;SDS011;9930;49.240;8.548;2023-04-24T07:16:42;3.30;;;1.95;;
19566;SDS011;9930;49.240;8.548;2023-04-24T07:19:10;1.60;;;1.50;;
19566;SDS011;9930;49.240;8.548;2023-04-24T07:21:39;1.08;;;1.08;;
19566;SDS011;9930;49.240;8.548;2023-04-24T07:24:05;1.30;;;1.20;;
19566;SDS011;9930;49.240;8.548;2023-04-24T07:26:35;1.30;;;1.20;;
19566;SDS011;9930;49.240;8.548;2023-04-24T07:29:04;1.00;;;1.00;;
19566;SDS011;9930;49.240;8.548;2023-04-24T07:31:31;1.00;;;1.00;;
19566;SDS011;9930;49.240;8.548;2023-04-24T07:33:59;1.15;;;1.05;;
19566;SDS011;9930;49.240;8.548;2023-04-24T07:36:27;2.17;;;1.70;;
19566;SDS011;9930;49.240;8.548;2023-04-24T07:38:53;2.53;;;1.98;;
19566;SDS011;9930;49.240;8.548;2023-04-24T07:41:20;3.25;;;2.17;;
19566;SDS011;9930;49.240;8.548;2023-04-24T07:43:52;3.13;;;2.83;;
19566;SDS011;9930;49.240;8.548;2023-04-24T07:46:18;1.90;;;1.73;;
19566;SDS011;9930;49.240;8.548;2023-04-24T07:48:48;1.90;;;1.50;;
19566;SDS011;9930;49.240;8.548;2023-04-24T07:51:14;1.63;;;1.50;;
19566;SDS011;9930;49.240;8.548;2023-04-24T07:53:47;1.90;;;1.30;;
19566;SDS011;9930;49.240;8.548;2023-04-24T07:56:14;2.78;;;1.10;;
19566;SDS011;9930;49.240;8.548;2023-04-24T07:58:44;1.10;;;1.00;;
19566;SDS011;9930;49.240;8.548;2023-04-24T08:01:11;1.27;;;1.17;;
19566;SDS011;9930;49.240;8.548;2023-04-24T08:03:37;1.30;;;1.20;;
19566;SDS011;9930;49.240;8.548;2023-04-24T08:06:02;1.38;;;1.30;;
19566;SDS011;9930;49.240;8.548;2023-04-24T08:08:31;1.52;;;1.42;;
19566;SDS011;9930;49.240;8.548;2023-04-24T08:10:58;1.60;;;1.50;;
19566;SDS011;9930;49.240;8.548;2023-04-24T08:13:27;1.52;;;1.42;;
19566;SDS011;9930;49.240;8.548;2023-04-24T08:15:53;1.58;;;1.48;;
19566;SDS011;9930;49.240;8.548;2023-04-24T08:18:21;1.55;;;1.45;;
19566;SDS011;9930;49.240;8.548;2023-04-24T08:20:47;1.60;;;1.50;;
19566;SDS011;9930;49.240;8.548;2023-04-24T08:23:13;1.83;;;1.70;;
19566;SDS011;9930;49.240;8.548;2023-04-24T08:25:42;2.00;;;1.80;;
19566;SDS011;9930;49.240;8.548;2023-04-24T08:28:08;1.88;;;1.77;;
19566;SDS011;9930;49.240;8.548;2023-04-24T08:30:36;1.70;;;1.60;;
19566;SDS011;9930;49.240;8.548;2023-04-24T08:33:03;1.58;;;1.42;;
19566;SDS011;9930;49.240;8.548;2023-04-24T08:35:29;1.35;;;1.25;;
19566;SDS011;9930;49.240;8.548;2023-04-24T08:37:59;1.70;;;1.30;;
19566;SDS011;9930;49.240;8.548;2023-04-24T08:40:27;1.60;;;1.50;;
19566;SDS011;9930;49.240;8.548;2023-04-24T08:42:55;1.38;;;1.27;;
19566;SDS011;9930;49.240;8.548;2023-04-24T08:45:22;1.45;;;1.25;;
19566;SDS011;9930;49.240;8.548;2023-04-24T08:47:49;1.38;;;1.13;;
19566;SDS011;9930;49.240;8.548;2023-04-24T08:50:17;1.30;;;1.20;;
19566;SDS011;9930;49.240;8.548;2023-04-24T08:52:45;1.20;;;1.10;;
19566;SDS011;9930;49.240;8.548;2023-04-24T08:55:14;1.52;;;1.42;;
19566;SDS011;9930;49.240;8.548;2023-04-24T08:57:45;1.42;;;1.30;;
19566;SDS011;9930;49.240;8.548;2023-04-24T09:00:15;1.45;;;1.27;;
19566;SDS011;9930;49.240;8.548;2023-04-24T09:02:45;2.05;;;1.42;;
19566;SDS011;9930;49.240;8.548;2023-04-24T09:05:17;1.48;;;1.38;;
19566;SDS011;9930;49.240;8.548;2023-04-24T09:07:49;1.73;;;1.30;;
19566;SDS011;9930;49.240;8.548;2023-04-24T09:10:19;1.27;;;1.17;;
19566;SDS011;9930;49.240;8.548;2023-04-24T09:12:50;1.52;;;1.20;;
19566;SDS011;9930;49.240;8.548;2023-04-24T09:15:17;1.30;;;1.20;;
19566;SDS011;9930;49.240;8.548;2023-04-24T09:17:47;1.50;;;1.40;;
19566;SDS011;9930;49.240;8.548;2023-04-24T09:20:13;1.50;;;1.40;;
19566;SDS011;9930;49.240;8.548;2023-04-24T09:22:42;1.60;;;1.50;;
19566;SDS011;9930;49.240;8.548;2023-04-24T09:25:10;1.90;;;1.50;;
19566;SDS011;9930;49.240;8.548;2023-04-24T09:27:41;1.40;;;1.30;;
19566;SDS011;9930;49.240;8.548;2023-04-24T09:30:12;1.67;;;1.45;;
19566;SDS011;9930;49.240;8.548;2023-04-24T09:32:44;1.60;;;1.48;;
19566;SDS011;9930;49.240;8.548;2023-04-24T09:35:16;1.42;;;1.30;;
19566;SDS011;9930;49.240;8.548;2023-04-24T09:37:46;1.63;;;1.52;;
19566;SDS011;9930;49.240;8.548;2023-04-24T09:40:16;1.83;;;1.60;;
19566;SDS011;9930;49.240;8.548;2023-04-24T09:42:51;1.48;;;1.38;;
19566;SDS011;9930;49.240;8.548;2023-04-24T09:45:19;2.10;;;1.90;;
19566;SDS011;9930;49.240;8.548;2023-04-24T09:47:52;1.75;;;1.65;;
19566;SDS011;9930;49.240;8.548;2023-04-24T09:50:24;2.17;;;1.98;;
19566;SDS011;9930;49.240;8.548;2023-04-24T09:52:56;2.40;;;2.20;;
19566;SDS011;9930;49.240;8.548;2023-04-24T09:55:30;2.50;;;2.08;;
19566;SDS011;9930;49.240;8.548;2023-04-24T09:58:00;1.80;;;1.70;;
19566;SDS011;9930;49.240;8.548;2023-04-24T10:00:31;1.90;;;1.80;;
19566;SDS011;9930;49.240;8.548;2023-04-24T10:03:04;2.25;;;2.03;;
19566;SDS011;9930;49.240;8.548;2023-04-24T10:05:34;2.30;;;2.10;;
19566;SDS011;9930;49.240;8.548;2023-04-24T10:08:03;1.85;;;1.70;;
19566;SDS011;9930;49.240;8.548;2023-04-24T10:10:40;1.90;;;1.80;;
19566;SDS011;9930;49.240;8.548;2023-04-24T10:13:11;1.92;;;1.70;;
19566;SDS011;9930;49.240;8.548;2023-04-24T10:15:40;1.83;;;1.70;;
19566;SDS011;9930;49.240;8.548;2023-04-24T10:18:07;2.38;;;1.80;;
19566;SDS011;9930;49.240;8.548;2023-04-24T10:20:35;2.03;;;1.73;;
19566;SDS011;9930;49.240;8.548;2023-04-24T10:23:09;2.15;;;1.95;;
19566;SDS011;9930;49.240;8.548;2023-04-24T10:25:36;4.05;;;2.72;;
19566;SDS011;9930;49.240;8.548;2023-04-24T10:28:04;7.20;;;4.70;;
19566;SDS011;9930;49.240;8.548;2023-04-24T10:30:34;4.72;;;3.20;;
19566;SDS011;9930;49.240;8.548;2023-04-24T10:33:00;2.92;;;2.72;;
19566;SDS011;9930;49.240;8.548;2023-04-24T10:35:29;2.47;;;2.22;;
19566;SDS011;9930;49.240;8.548;2023-04-24T10:38:28;2.40;;;2.20;;
19566;SDS011;9930;49.240;8.548;2023-04-24T10:41:13;2.80;;;2.05;;
19566;SDS011;9930;49.240;8.548;2023-04-24T10:43:48;2.17;;;1.75;;
19566;SDS011;9930;49.240;8.548;2023-04-24T10:46:31;2.40;;;2.20;;
19566;SDS011;9930;49.240;8.548;2023-04-24T10:48:57;2.30;;;2.10;;
19566;SDS011;9930;49.240;8.548;2023-04-24T10:51:45;2.50;;;2.30;;
19566;SDS011;9930;49.240;8.548;2023-04-24T10:54:21;2.47;;;2.17;;
19566;SDS011;9930;49.240;8.548;2023-04-24T11:02:40;3.10;;;2.38;;
19566;SDS011;9930;49.240;8.548;2023-04-24T11:05:15;2.42;;;2.22;;
19566;SDS011;9930;49.240;8.548;2023-04-24T11:08:21;2.38;;;2.17;;
19566;SDS011;9930;49.240;8.548;2023-04-24T11:22:03;7.18;;;5.38;;
19566;SDS011;9930;49.240;8.548;2023-04-24T11:24:49;7.47;;;5.47;;
19566;SDS011;9930;49.240;8.548;2023-04-24T11:27:21;2.90;;;2.70;;
19566;SDS011;9930;49.240;8.548;2023-04-24T11:29:48;2.80;;;2.60;;
19566;SDS011;9930;49.240;8.548;2023-04-24T11:37:39;2.55;;;2.22;;
19566;SDS011;9930;49.240;8.548;2023-04-24T11:40:11;2.08;;;1.98;;
19566;SDS011;9930;49.240;8.548;2023-04-24T11:42:45;2.30;;;2.10;;
19566;SDS011;9930;49.240;8.548;2023-04-24T11:45:20;2.55;;;2.25;;
19566;SDS011;9930;49.240;8.548;2023-04-24T11:47:52;2.60;;;2.40;;
19566;SDS011;9930;49.240;8.548;2023-04-24T11:50:18;3.10;;;2.90;;
19566;SDS011;9930;49.240;8.548;2023-04-24T11:52:48;3.05;;;2.75;;
19566;SDS011;9930;49.240;8.548;2023-04-24T11:57:49;2.30;;;2.10;;
19566;SDS011;9930;49.240;8.548;2023-04-24T12:00:19;2.50;;;2.30;;
19566;SDS011;9930;49.240;8.548;2023-04-24T12:02:49;2.40;;;2.20;;
19566;SDS011;9930;49.240;8.548;2023-04-24T12:05:26;2.28;;;2.08;;
19566;SDS011;9930;49.240;8.548;2023-04-24T12:07:55;2.85;;;2.22;;
19566;SDS011;9930;49.240;8.548;2023-04-24T12:10:24;2.38;;;2.20;;
19566;SDS011;9930;49.240;8.548;2023-04-24T12:12:56;2.45;;;2.25;;
19566;SDS011;9930;49.240;8.548;2023-04-24T12:15:23;2.60;;;2.40;;
19566;SDS011;9930;49.240;8.548;2023-04-24T12:17:50;2.63;;;2.40;;
19566;SDS011;9930;49.240;8.548;2023-04-24T12:20:24;2.42;;;2.10;;
19566;SDS011;9930;49.240;8.548;2023-04-24T12:22:54;2.58;;;2.38;;
19566;SDS011;9930;49.240;8.548;2023-04-24T12:25:25;4.35;;;2.67;;
19566;SDS011;9930;49.240;8.548;2023-04-24T12:30:31;2.45;;;2.25;;
19566;SDS011;9930;49.240;8.548;2023-04-24T12:33:01;2.10;;;1.83;;
19566;SDS011;9930;49.240;8.548;2023-04-24T12:35:28;4.13;;;2.80;;
19566;SDS011;9930;49.240;8.548;2023-04-24T12:38:13;2.45;;;2.25;;
19566;SDS011;9930;49.240;8.548;2023-04-24T12:40:42;2.63;;;2.42;;
19566;SDS011;9930;49.240;8.548;2023-04-24T12:43:13;3.13;;;2.80;;
19566;SDS011;9930;49.240;8.548;2023-04-24T12:45:58;2.95;;;2.40;;
19566;SDS011;9930;49.240;8.548;2023-04-24T12:48:28;3.08;;;2.80;;
19566;SDS011;9930;49.240;8.548;2023-04-24T12:50:56;3.38;;;3.05;;
19566;SDS011;9930;49.240;8.548;2023-04-24T12:53:30;3.33;;;2.72;;
19566;SDS011;9930;49.240;8.548;2023-04-24T12:55:56;3.15;;;2.78;;
19566;SDS011;9930;49.240;8.548;2023-04-24T12:58:22;2.72;;;2.53;;
19566;SDS011;9930;49.240;8.548;2023-04-24T13:00:50;3.00;;;2.67;;
19566;SDS011;9930;49.240;8.548;2023-04-24T13:03:19;2.75;;;2.50;;
19566;SDS011;9930;49.240;8.548;2023-04-24T13:05:49;3.58;;;2.67;;
19566;SDS011;9930;49.240;8.548;2023-04-24T13:08:15;2.92;;;2.58;;
19566;SDS011;9930;49.240;8.548;2023-04-24T13:10:40;3.20;;;2.90;;
19566;SDS011;9930;49.240;8.548;2023-04-24T13:13:06;2.80;;;2.60;;
19566;SDS011;9930;49.240;8.548;2023-04-24T13:15:34;4.22;;;2.80;;
19566;SDS011;9930;49.240;8.548;2023-04-24T13:18:00;2.70;;;2.50;;
19566;SDS011;9930;49.240;8.548;2023-04-24T13:20:26;2.65;;;2.45;;
19566;SDS011;9930;49.240;8.548;2023-04-24T13:22:52;2.50;;;2.17;;
19566;SDS011;9930;49.240;8.548;2023-04-24T13:25:20;2.40;;;2.20;;
19566;SDS011;9930;49.240;8.548;2023-04-24T13:27:48;1.95;;;1.80;;
19566;SDS011;9930;49.240;8.548;2023-04-24T13:30:18;2.30;;;2.10;;
19566;SDS011;9930;49.240;8.548;2023-04-24T13:32:45;2.17;;;1.98;;
19566;SDS011;9930;49.240;8.548;2023-04-24T13:35:21;2.55;;;2.35;;
19566;SDS011;9930;49.240;8.548;2023-04-24T13:37:49;2.53;;;2.28;;
19566;SDS011;9930;49.240;8.548;2023-04-24T13:40:14;2.08;;;1.83;;
19566;SDS011;9930;49.240;8.548;2023-04-24T13:42:41;2.38;;;2.17;;
19566;SDS011;9930;49.240;8.548;2023-04-24T13:45:13;2.45;;;2.25;;
19566;SDS011;9930;49.240;8.548;2023-04-24T13:47:42;2.70;;;2.50;;
19566;SDS011;9930;49.240;8.548;2023-04-24T13:50:11;2.47;;;2.28;;
19566;SDS011;9930;49.240;8.548;2023-04-24T13:52:40;3.13;;;2.67;;
19566;SDS011;9930;49.240;8.548;2023-04-24T13:55:06;2.85;;;2.65;;
19566;SDS011;9930;49.240;8.548;2023-04-24T13:57:32;2.95;;;2.60;;
19566;SDS011;9930;49.240;8.548;2023-04-24T13:59:58;2.67;;;2.47;;
19566;SDS011;9930;49.240;8.548;2023-04-24T14:02:37;2.65;;;2.40;;
19566;SDS011;9930;49.240;8.548;2023-04-24T14:05:05;2.30;;;2.10;;
19566;SDS011;9930;49.240;8.548;2023-04-24T14:07:31;2.95;;;2.38;;
19566;SDS011;9930;49.240;8.548;2023-04-24T14:09:57;2.90;;;2.70;;
19566;SDS011;9930;49.240;8.548;2023-04-24T14:12:28;2.40;;;2.20;;
19566;SDS011;9930;49.240;8.548;2023-04-24T14:14:59;2.65;;;2.17;;
19566;SDS011;9930;49.240;8.548;2023-04-24T14:17:26;2.55;;;1.98;;
19566;SDS011;9930;49.240;8.548;2023-04-24T14:19:55;2.75;;;2.55;;
19566;SDS011;9930;49.240;8.548;2023-04-24T14:22:21;3.78;;;3.47;;
19566;SDS011;9930;49.240;8.548;2023-04-24T14:24:48;3.63;;;3.33;;
19566;SDS011;9930;49.240;8.548;2023-04-24T14:27:15;3.90;;;3.60;;
19566;SDS011;9930;49.240;8.548;2023-04-24T14:29:43;2.35;;;2.25;;
19566;SDS011;9930;49.240;8.548;2023-04-24T14:32:12;3.15;;;2.50;;
19566;SDS011;9930;49.240;8.548;2023-04-24T14:34:40;2.55;;;2.35;;
19566;SDS011;9930;49.240;8.548;2023-04-24T14:37:08;2.80;;;2.60;;
19566;SDS011;9930;49.240;8.548;2023-04-24T14:39:33;3.60;;;2.70;;
19566;SDS011;9930;49.240;8.548;2023-04-24T14:41:59;2.58;;;2.10;;
19566;SDS011;9930;49.240;8.548;2023-04-24T14:44:26;2.40;;;2.20;;
19566;SDS011;9930;49.240;8.548;2023-04-24T14:46:54;2.03;;;1.83;;
19566;SDS011;9930;49.240;8.548;2023-04-24T14:49:22;2.40;;;2.20;;
19566;SDS011;9930;49.240;8.548;2023-04-24T14:51:50;2.40;;;2.17;;
19566;SDS011;9930;49.240;8.548;2023-04-24T14:54:17;2.83;;;1.90;;
19566;SDS011;9930;49.240;8.548;2023-04-24T14:56:47;2.33;;;2.13;;
19566;SDS011;9930;49.240;8.548;2023-04-24T14:59:15;2.60;;;2.00;;
19566;SDS011;9930;49.240;8.548;2023-04-24T15:01:44;3.08;;;2.55;;
19566;SDS011;9930;49.240;8.548;2023-04-24T15:04:12;3.30;;;3.00;;
19566;SDS011;9930;49.240;8.548;2023-04-24T15:06:40;5.07;;;4.57;;
19566;SDS011;9930;49.240;8.548;2023-04-24T15:09:10;4.32;;;3.92;;
19566;SDS011;9930;49.240;8.548;2023-04-24T15:11:36;3.53;;;3.22;;
19566;SDS011;9930;49.240;8.548;2023-04-24T15:14:05;2.92;;;2.72;;
19566;SDS011;9930;49.240;8.548;2023-04-24T15:16:31;4.15;;;3.03;;
19566;SDS011;9930;49.240;8.548;2023-04-24T15:19:01;3.00;;;2.80;;
19566;SDS011;9930;49.240;8.548;2023-04-24T15:21:27;3.13;;;2.90;;
19566;SDS011;9930;49.240;8.548;2023-04-24T15:23:53;2.80;;;2.55;;
19566;SDS011;9930;49.240;8.548;2023-04-24T15:26:19;2.65;;;2.45;;
19566;SDS011;9930;49.240;8.548;2023-04-24T15:28:47;2.63;;;2.42;;
19566;SDS011;9930;49.240;8.548;2023-04-24T15:31:16;2.55;;;2.35;;
19566;SDS011;9930;49.240;8.548;2023-04-24T15:33:44;2.50;;;2.30;;
19566;SDS011;9930;49.240;8.548;2023-04-24T15:36:11;2.50;;;2.30;;